Detall de PIREP

Printer-friendly versionPDF version

[2013/02/15 21:14:00]
Flight IATA:CT2102
Pilot Number:044
Company ICAO:CAT
Aircraft Type:AT72/F
PAX:40
Departing Airport: LEVC
Destination Airport: LEAM
Alternate Airport:LEMG
Online: VATSIM
Route:NARGO G850 DOSEK
Flight Level:F210
No Slew and time accel
No pause
Crash detect
Detect pilot in Cockpit between each 30 and 45 minutes
21:14 Zero fuel Weight: 39663 Lbs, Fuel Weight: 5478 Lbs
21:14 VATSIM:LEVC 152100Z VRB02KT CAVOK 11/07 Q1021 NOSIG
21:14 VATSIM:LEAM 152100Z 33003KT CAVOK 13/10 Q1020
21:14 VOICE CATALONIAN
21:17 Parking Brakes off
21:22 Take-off
21:22 Take off Weight: 45042 Lbs
21:22 Wind: 358º @ 001 Knots Heading: 294º
21:22 POS N39º 29´ 21´´ W000º 28´ 52´´
21:22 Flaps:1 at 138 Knots
21:22 Gear Up: 137 Knots
21:23 Flaps:0 at 173 Knots
21:37 Wind:244º@002 Knots Heading: 206º Ground Speed: 194 Knots Altitude 19258 ft
21:38 TOC
21:38 Fuel Weight: 4859Lb
21:48 TOD
21:48 Fuel Weight: 4575 Lb
21:52 Wind:050º@010 Knots Heading: 207º Ground Speed: 266 Knots Altitude 17237 ft
22:07 Wind:030º@000 Knots Heading: 186º Ground Speed: 192 Knots Altitude 2988 ft
22:10 Flaps:1 at 149 Knots
22:13 Gear Down: 183 Knots
22:14 Flaps:2 at 151 Knots
22:16 TouchDown:Rate -307 ft/min Speed: 115 Knots
22:16 VATSIM:LEAM 152130Z 00000KT CAVOK 12/09 Q1020
22:16 Land
22:16 Wind:319º@001 Knots
22:16 Heading: 254º
22:16 Flight Duration: 00:54
22:16 Landing Weight: 43965 Lbs
22:16 POS N36º 50´ 34´´ W002º 22´ 27´´
22:22 Parking brakes on
22:22 Block to Block Duration: 01:05
22:22 Final Fuel: 4252 Lbls
22:22 Spent Fuel: 1225 Lbls
22:22 Flight Length: 198 NM
22:22 TOD Land Length: 96 NM

Exportar CSV

Powered by Drupal - Modified by Danger4k